createdAt,value
2017-05-21T00:02:11.898Z,54.30
2017-05-21T00:04:40.265Z,54.10
2017-05-21T00:07:08.597Z,54.20
2017-05-21T00:09:36.927Z,54.20
2017-05-21T00:12:05.241Z,54.00
2017-05-21T00:14:33.684Z,54.10
2017-05-21T00:17:02.052Z,53.90
2017-05-21T00:19:30.346Z,54.20
2017-05-21T00:21:58.671Z,54.10
2017-05-21T00:24:26.984Z,54.00
2017-05-21T00:26:55.376Z,54.10
2017-05-21T00:29:23.673Z,54.90
2017-05-21T00:31:51.970Z,54.20
2017-05-21T00:34:20.298Z,54.20
2017-05-21T00:36:48.597Z,54.20
2017-05-21T00:39:16.962Z,54.30
2017-05-21T00:41:45.294Z,54.50
2017-05-21T00:44:13.595Z,54.60
2017-05-21T00:46:42.471Z,54.70
2017-05-21T00:49:10.808Z,54.50
2017-05-21T00:51:39.108Z,54.50
2017-05-21T00:54:07.400Z,54.60
2017-05-21T00:56:35.718Z,54.50
2017-05-21T00:59:04.002Z,54.50
2017-05-21T01:01:32.461Z,54.60
2017-05-21T01:04:00.771Z,55.40
2017-05-21T01:06:29.065Z,54.90
2017-05-21T01:08:57.350Z,55.20
2017-05-21T01:11:25.655Z,55.20
2017-05-21T01:13:53.925Z,55.20
2017-05-21T01:16:22.378Z,55.20
2017-05-21T01:18:50.698Z,54.70
2017-05-21T01:21:19.004Z,54.30
2017-05-21T01:23:47.311Z,54.30
2017-05-21T01:26:15.651Z,54.30
2017-05-21T01:28:43.961Z,54.40
2017-05-21T01:31:12.254Z,54.60
2017-05-21T01:33:40.561Z,54.50
2017-05-21T01:36:08.869Z,54.50
2017-05-21T01:38:37.170Z,54.90
2017-05-21T01:41:05.480Z,54.70
2017-05-21T01:43:33.827Z,54.60
2017-05-21T01:46:02.161Z,55.10
2017-05-21T01:48:30.473Z,54.50
2017-05-21T01:50:58.757Z,54.60
2017-05-21T01:53:27.093Z,54.50
2017-05-21T01:55:55.366Z,54.60
2017-05-21T01:58:23.658Z,54.40
2017-05-21T02:00:52.003Z,54.90
2017-05-21T02:03:20.305Z,55.00
2017-05-21T02:05:48.576Z,54.70
2017-05-21T02:08:16.898Z,55.00
2017-05-21T02:10:45.723Z,54.50
2017-05-21T02:13:14.003Z,54.60
2017-05-21T02:15:42.278Z,54.40
2017-05-21T02:18:10.575Z,54.40
2017-05-21T02:20:39.046Z,54.40
2017-05-21T02:23:07.319Z,54.20
2017-05-21T02:25:35.607Z,54.30
2017-05-21T02:28:03.899Z,54.70
2017-05-21T02:30:32.205Z,54.00
2017-05-21T02:33:00.477Z,53.80
2017-05-21T02:35:28.789Z,53.80
2017-05-21T02:37:57.505Z,53.80
2017-05-21T02:40:25.828Z,53.80
2017-05-21T02:42:54.117Z,53.90
2017-05-21T02:45:21.650Z,53.90
2017-05-21T02:47:50.202Z,54.20
2017-05-21T02:50:18.486Z,54.00
2017-05-21T02:52:46.761Z,54.00
2017-05-21T02:55:15.078Z,53.90
2017-05-21T02:57:43.387Z,54.00
2017-05-21T03:00:11.659Z,54.20
2017-05-21T03:02:39.957Z,54.20
2017-05-21T03:05:08.240Z,54.20
2017-05-21T03:07:36.726Z,54.20
2017-05-21T03:10:05.704Z,54.40
2017-05-21T03:12:33.982Z,54.30
2017-05-21T03:15:02.271Z,54.40
2017-05-21T03:17:30.555Z,54.70
2017-05-21T03:19:58.842Z,54.70
2017-05-21T03:22:27.133Z,54.30
2017-05-21T03:24:55.447Z,54.30
2017-05-21T03:27:23.728Z,54.40
2017-05-21T03:29:52.022Z,54.40
2017-05-21T03:32:20.323Z,54.80
2017-05-21T03:34:48.649Z,55.20
2017-05-21T03:37:16.931Z,54.60
2017-05-21T03:39:45.243Z,54.90
2017-05-21T03:42:13.539Z,55.10
2017-05-21T03:44:41.820Z,54.70
2017-05-21T03:47:10.107Z,54.60
2017-05-21T03:49:38.477Z,54.80
2017-05-21T03:52:06.782Z,54.90
2017-05-21T03:54:35.073Z,54.70
2017-05-21T03:57:03.401Z,54.70
2017-05-21T03:59:31.679Z,54.30
2017-05-21T04:01:59.964Z,54.40
2017-05-21T04:04:28.239Z,54.70
2017-05-21T04:06:56.534Z,54.90
2017-05-21T04:09:24.846Z,54.50
2017-05-21T04:11:53.133Z,54.60
2017-05-21T04:14:21.431Z,54.70
2017-05-21T04:16:49.713Z,54.40
2017-05-21T04:19:17.973Z,54.80
2017-05-21T04:21:46.283Z,54.60
2017-05-21T04:24:14.567Z,54.50
2017-05-21T04:26:42.871Z,54.20
2017-05-21T04:29:11.163Z,54.00
2017-05-21T04:31:39.514Z,53.70
2017-05-21T04:34:07.097Z,53.70
2017-05-21T04:36:36.278Z,53.50
2017-05-21T04:39:03.791Z,53.60
2017-05-21T04:41:32.495Z,53.60
2017-05-21T04:44:00.889Z,53.40
2017-05-21T04:46:29.227Z,53.40
2017-05-21T04:48:57.542Z,53.30
2017-05-21T04:51:25.976Z,53.80
2017-05-21T04:53:54.272Z,53.50
2017-05-21T04:56:22.559Z,53.00
2017-05-21T04:58:50.876Z,52.50
2017-05-21T05:01:19.171Z,52.20
2017-05-21T05:03:48.384Z,51.90
2017-05-21T05:06:16.683Z,51.80
2017-05-21T05:08:45.273Z,52.10
2017-05-21T05:11:13.589Z,52.20
2017-05-21T05:13:41.954Z,52.60
2017-05-21T05:16:10.250Z,52.70
2017-05-21T05:18:38.547Z,52.50
2017-05-21T05:21:06.825Z,52.60
2017-05-21T05:23:35.103Z,52.70
2017-05-21T05:26:03.481Z,53.00
2017-05-21T05:28:31.771Z,53.00
2017-05-21T05:31:00.051Z,53.20
2017-05-21T05:33:28.337Z,53.50
2017-05-21T05:35:56.671Z,53.60
2017-05-21T05:38:24.993Z,53.50
2017-05-21T05:40:53.281Z,53.40
2017-05-21T05:43:21.557Z,53.10
2017-05-21T05:45:49.872Z,53.10
2017-05-21T05:48:18.161Z,52.80
2017-05-21T05:50:46.431Z,53.00
2017-05-21T05:53:14.775Z,53.20
2017-05-21T05:55:43.062Z,53.10
2017-05-21T05:58:11.353Z,53.60
2017-05-21T06:00:39.666Z,53.20
2017-05-21T06:03:07.938Z,53.70
2017-05-21T06:05:36.287Z,53.40
2017-05-21T06:08:04.592Z,53.40
2017-05-21T06:10:32.871Z,52.00
2017-05-21T06:13:01.149Z,52.80
2017-05-21T06:15:29.468Z,52.60
2017-05-21T06:17:58.554Z,52.10
2017-05-21T06:20:26.836Z,52.10
2017-05-21T06:22:55.178Z,52.00
2017-05-21T06:25:23.468Z,51.30
2017-05-21T06:27:51.773Z,51.00
2017-05-21T06:30:20.256Z,50.40
2017-05-21T06:32:48.539Z,50.70
2017-05-21T06:35:16.811Z,51.20
2017-05-21T06:37:45.090Z,50.90
2017-05-21T06:40:13.451Z,50.30
2017-05-21T06:42:41.790Z,50.00
2017-05-21T06:45:10.663Z,50.60
2017-05-21T06:47:38.976Z,49.80
2017-05-21T06:50:07.321Z,49.40
2017-05-21T06:52:35.590Z,49.70
2017-05-21T06:55:03.927Z,49.00
2017-05-21T06:57:32.226Z,48.80
2017-05-21T07:00:00.516Z,48.80
2017-05-21T07:02:28.930Z,49.10
2017-05-21T07:04:57.817Z,49.00
2017-05-21T07:07:26.118Z,48.30
2017-05-21T07:09:54.431Z,47.90
2017-05-21T07:12:22.722Z,47.60
2017-05-21T07:14:51.044Z,47.00
2017-05-21T07:17:19.336Z,46.60
2017-05-21T07:19:47.843Z,46.40
2017-05-21T07:22:16.141Z,46.60
2017-05-21T07:24:44.427Z,46.80
2017-05-21T07:27:12.733Z,46.90
2017-05-21T07:29:41.021Z,47.50
2017-05-21T07:32:09.306Z,47.00
2017-05-21T07:34:37.614Z,46.40
2017-05-21T07:37:05.924Z,46.40
2017-05-21T07:39:34.228Z,45.50
2017-05-21T07:42:02.530Z,45.70
2017-05-21T07:44:30.816Z,45.50
2017-05-21T07:46:59.096Z,45.50
2017-05-21T07:49:27.394Z,45.40
2017-05-21T07:51:55.693Z,45.40
2017-05-21T07:54:24.013Z,45.00
2017-05-21T07:56:52.335Z,44.20
2017-05-21T07:59:20.673Z,43.90
2017-05-21T08:01:49.033Z,43.40
2017-05-21T08:04:17.311Z,44.10
2017-05-21T08:06:45.652Z,43.40
2017-05-21T08:09:13.982Z,42.10
2017-05-21T08:11:42.280Z,42.30
2017-05-21T08:14:10.710Z,43.00
2017-05-21T08:16:39.058Z,42.30
2017-05-21T08:19:07.540Z,41.90
2017-05-21T08:21:35.839Z,41.90
2017-05-21T08:24:04.161Z,40.70
2017-05-21T08:26:32.495Z,40.30
2017-05-21T08:29:00.777Z,40.80
2017-05-21T08:31:29.083Z,41.00
2017-05-21T08:33:57.426Z,40.60
2017-05-21T08:36:25.792Z,41.10
2017-05-21T08:38:54.186Z,39.50
2017-05-21T08:41:21.749Z,39.50
2017-05-21T08:43:50.063Z,38.60
2017-05-21T08:46:18.489Z,38.00
2017-05-21T08:48:46.799Z,38.40
2017-05-21T08:51:17.934Z,37.90
2017-05-21T08:53:46.635Z,37.80
2017-05-21T08:56:15.087Z,37.60
2017-05-21T08:58:44.650Z,38.10
2017-05-21T09:01:14.869Z,38.10
2017-05-21T09:03:43.285Z,37.70
2017-05-21T09:06:11.811Z,36.60
2017-05-21T09:08:40.532Z,37.00
2017-05-21T09:11:09.012Z,37.10
2017-05-21T09:13:37.349Z,37.50
2017-05-21T09:16:05.911Z,36.10
2017-05-21T09:18:34.368Z,35.70
2017-05-21T09:21:02.650Z,35.90
2017-05-21T09:23:30.969Z,35.80
2017-05-21T09:25:59.244Z,35.40
2017-05-21T09:28:27.542Z,35.00
2017-05-21T09:30:55.834Z,35.30
2017-05-21T09:33:24.119Z,34.10
2017-05-21T09:35:52.501Z,33.30
2017-05-21T09:38:20.800Z,32.70
2017-05-21T09:40:49.084Z,31.60
2017-05-21T09:43:17.378Z,32.40
2017-05-21T09:45:45.693Z,33.20
2017-05-21T09:48:14.311Z,31.90
2017-05-21T09:50:42.765Z,31.10
2017-05-21T09:53:11.089Z,31.60
2017-05-21T09:55:39.362Z,31.50
2017-05-21T09:58:07.672Z,30.90
2017-05-21T10:00:36.013Z,30.20
2017-05-21T10:03:04.297Z,31.50
2017-05-21T10:05:32.597Z,30.50
2017-05-21T10:08:00.929Z,29.60
2017-05-21T10:10:29.317Z,30.00
2017-05-21T10:12:57.614Z,29.90
2017-05-21T10:15:25.972Z,29.50
2017-05-21T10:17:54.294Z,30.40
2017-05-21T10:20:22.619Z,30.20
2017-05-21T10:22:51.311Z,30.20
2017-05-21T10:25:19.612Z,30.00
2017-05-21T10:27:47.934Z,30.00
2017-05-21T10:30:16.278Z,28.10
2017-05-21T10:32:44.610Z,28.50
2017-05-21T10:35:12.940Z,27.00
2017-05-21T10:37:41.257Z,25.90
2017-05-21T10:40:09.530Z,24.30
2017-05-21T10:42:37.882Z,22.70
2017-05-21T10:45:06.163Z,22.20
2017-05-21T10:47:34.535Z,23.00
2017-05-21T10:50:02.815Z,21.10
2017-05-21T10:52:31.185Z,20.70
2017-05-21T10:54:59.508Z,20.30
2017-05-21T10:57:27.932Z,20.80
2017-05-21T10:59:56.527Z,20.70
2017-05-21T11:02:24.858Z,18.70
2017-05-21T11:04:53.344Z,17.80
2017-05-21T11:07:21.902Z,17.50
2017-05-21T11:09:50.252Z,16.50
2017-05-21T11:12:18.675Z,17.30
2017-05-21T11:14:47.056Z,18.80
2017-05-21T11:17:15.430Z,20.00
2017-05-21T11:19:43.715Z,21.60
2017-05-21T11:22:12.055Z,19.40
2017-05-21T11:24:40.377Z,19.20
2017-05-21T11:27:08.710Z,18.80
2017-05-21T11:29:37.020Z,19.30
2017-05-21T11:32:06.140Z,19.20
2017-05-21T11:34:34.729Z,17.60
2017-05-21T11:37:03.070Z,16.60
2017-05-21T11:39:31.372Z,18.30
2017-05-21T11:41:59.670Z,18.50
2017-05-21T11:44:27.221Z,18.50
2017-05-21T11:46:55.529Z,16.20
2017-05-21T11:49:23.046Z,16.20
2017-05-21T11:51:51.815Z,17.10
2017-05-21T11:54:20.310Z,18.10
2017-05-21T11:56:48.647Z,18.80
2017-05-21T11:59:16.967Z,18.30
2017-05-21T12:01:44.508Z,18.30
2017-05-21T12:04:12.812Z,18.50
2017-05-21T12:06:41.100Z,18.50
2017-05-21T12:09:09.552Z,18.10
2017-05-21T12:11:37.827Z,16.70
2017-05-21T12:14:06.194Z,17.40
2017-05-21T12:16:34.483Z,16.70
2017-05-21T12:19:02.777Z,16.10
2017-05-21T12:21:31.142Z,14.80
2017-05-21T12:23:59.473Z,14.70
2017-05-21T12:26:28.613Z,14.40
2017-05-21T12:28:57.042Z,14.90
2017-05-21T12:31:25.432Z,16.20
2017-05-21T12:33:53.888Z,16.30
2017-05-21T12:36:22.275Z,16.60
2017-05-21T12:38:50.570Z,17.50
2017-05-21T12:41:18.916Z,18.20
2017-05-21T12:43:47.230Z,19.20
2017-05-21T12:46:15.622Z,20.10
2017-05-21T12:48:43.979Z,20.70
2017-05-21T12:51:12.540Z,19.90
2017-05-21T12:53:40.846Z,20.50
2017-05-21T12:56:09.820Z,21.70
2017-05-21T12:58:38.126Z,22.40
2017-05-21T13:01:06.446Z,22.80
2017-05-21T13:03:34.892Z,22.80
2017-05-21T13:06:03.195Z,21.00
2017-05-21T13:08:31.539Z,20.80
2017-05-21T13:13:36.736Z,21.30
2017-05-21T13:16:05.028Z,22.90
2017-05-21T13:18:33.360Z,23.40
2017-05-21T13:21:02.013Z,24.10
2017-05-21T13:23:30.360Z,24.40
2017-05-21T13:26:00.433Z,24.80
2017-05-21T13:28:27.998Z,24.70
2017-05-21T13:30:55.603Z,25.20
2017-05-21T13:33:31.017Z,25.70
2017-05-21T13:35:59.323Z,25.80
2017-05-21T13:38:27.604Z,25.00
2017-05-21T13:40:55.934Z,25.70
2017-05-21T13:43:24.979Z,25.50
2017-05-21T13:45:53.264Z,25.30
2017-05-21T13:48:21.652Z,23.50
2017-05-21T13:50:49.235Z,23.50
2017-05-21T13:53:17.551Z,22.60
2017-05-21T13:55:46.047Z,22.60
2017-05-21T13:58:14.351Z,23.90
2017-05-21T14:00:42.684Z,24.60
2017-05-21T14:03:10.979Z,23.90
2017-05-21T14:05:39.312Z,24.40
2017-05-21T14:08:07.647Z,24.40
2017-05-21T14:10:35.991Z,24.50
2017-05-21T14:13:04.297Z,24.50
2017-05-21T14:15:32.610Z,24.80
2017-05-21T14:18:01.905Z,24.80
2017-05-21T14:20:29.438Z,24.80
2017-05-21T14:22:57.783Z,24.40
2017-05-21T14:25:26.094Z,26.00
2017-05-21T14:27:54.387Z,25.60
2017-05-21T14:30:22.714Z,25.60
2017-05-21T14:32:51.016Z,25.00
2017-05-21T14:35:19.320Z,25.20
2017-05-21T14:37:47.331Z,25.20
2017-05-21T14:40:18.259Z,25.00
2017-05-21T14:42:46.815Z,25.00
2017-05-21T14:45:15.094Z,26.00
2017-05-21T14:47:43.390Z,25.80
2017-05-21T14:50:11.728Z,25.40
2017-05-21T14:52:40.843Z,25.50
2017-05-21T14:55:09.160Z,26.20
2017-05-21T14:57:38.377Z,26.90
2017-05-21T15:00:06.714Z,26.60
2017-05-21T15:02:35.002Z,26.90
2017-05-21T15:05:03.363Z,26.70
2017-05-21T15:07:31.655Z,27.00
2017-05-21T15:09:59.961Z,26.60
2017-05-21T15:12:28.535Z,27.00
2017-05-21T15:14:56.853Z,26.90
2017-05-21T15:17:25.245Z,26.50
2017-05-21T15:19:53.533Z,26.50
2017-05-21T15:22:21.905Z,26.60
2017-05-21T15:24:50.236Z,26.20
2017-05-21T15:27:18.675Z,25.90
2017-05-21T15:29:47.036Z,26.50
2017-05-21T15:32:15.371Z,26.40
2017-05-21T15:34:43.667Z,26.30
2017-05-21T15:37:11.977Z,26.10
2017-05-21T15:39:40.322Z,26.50
2017-05-21T15:42:08.667Z,24.90
2017-05-21T15:44:36.943Z,24.00
2017-05-21T15:47:05.283Z,23.40
2017-05-21T15:49:33.595Z,23.20
2017-05-21T15:52:01.963Z,22.40
2017-05-21T15:54:30.268Z,21.70
2017-05-21T15:56:58.559Z,20.70
2017-05-21T15:59:26.846Z,20.90
2017-05-21T16:01:55.189Z,21.10
2017-05-21T16:04:23.598Z,21.50
2017-05-21T16:06:51.907Z,22.40
2017-05-21T16:09:20.191Z,23.20
2017-05-21T16:11:48.767Z,24.00
2017-05-21T16:14:17.095Z,24.60
2017-05-21T16:16:45.413Z,24.80
2017-05-21T16:19:13.751Z,25.30
2017-05-21T16:21:42.430Z,24.70
2017-05-21T16:24:10.790Z,23.30
2017-05-21T16:26:39.136Z,21.90
2017-05-21T16:29:07.452Z,20.90
2017-05-21T16:31:35.761Z,19.90
2017-05-21T16:34:04.041Z,18.70
2017-05-21T16:36:32.377Z,18.50
2017-05-21T16:39:00.666Z,18.20
2017-05-21T16:41:28.981Z,18.70
2017-05-21T16:43:57.285Z,18.30
2017-05-21T16:46:25.656Z,18.40
2017-05-21T16:48:53.952Z,19.00
2017-05-21T16:51:22.288Z,18.00
2017-05-21T16:53:50.963Z,18.40
2017-05-21T16:56:19.331Z,18.50
2017-05-21T16:58:47.649Z,17.80
2017-05-21T17:01:15.207Z,17.80
2017-05-21T17:03:43.508Z,18.00
2017-05-21T17:06:11.819Z,19.20
2017-05-21T17:08:40.199Z,20.00
2017-05-21T17:11:08.516Z,21.20
2017-05-21T17:13:36.800Z,22.20
2017-05-21T17:16:05.143Z,23.10
2017-05-21T17:18:33.445Z,24.10
2017-05-21T17:21:02.189Z,25.30
2017-05-21T17:23:30.530Z,25.70
2017-05-21T17:25:58.884Z,26.00
2017-05-21T17:28:27.159Z,26.30
2017-05-21T17:30:55.491Z,26.60
2017-05-21T17:33:23.866Z,27.00
2017-05-21T17:35:52.184Z,27.50
2017-05-21T17:38:20.601Z,27.80
2017-05-21T17:40:48.969Z,28.00
2017-05-21T17:43:17.402Z,28.30
2017-05-21T17:45:45.711Z,28.40
2017-05-21T17:48:13.995Z,28.40
2017-05-21T17:50:42.308Z,28.30
2017-05-21T17:53:10.648Z,28.40
2017-05-21T17:55:38.931Z,28.40
2017-05-21T17:58:07.249Z,28.70
2017-05-21T18:00:35.577Z,28.90
2017-05-21T18:03:03.860Z,29.20
2017-05-21T18:05:32.209Z,29.70
2017-05-21T18:08:00.504Z,29.90
2017-05-21T18:10:28.847Z,30.10
2017-05-21T18:12:57.630Z,30.30
2017-05-21T18:15:25.925Z,30.50
2017-05-21T18:17:54.251Z,30.80
2017-05-21T18:20:22.588Z,30.90
2017-05-21T18:22:50.914Z,31.30
2017-05-21T18:25:19.455Z,31.50
2017-05-21T18:27:47.778Z,31.70
2017-05-21T18:30:16.093Z,32.00
2017-05-21T18:32:44.499Z,32.30
2017-05-21T18:35:12.888Z,32.80
2017-05-21T18:37:41.193Z,33.30
2017-05-21T18:40:09.510Z,33.70
2017-05-21T18:42:37.797Z,34.10
2017-05-21T18:45:06.138Z,34.40
2017-05-21T18:47:34.468Z,34.60
2017-05-21T18:50:02.821Z,34.80
2017-05-21T18:52:31.187Z,34.90
2017-05-21T18:54:59.527Z,35.10
2017-05-21T18:57:27.853Z,35.20
2017-05-21T18:59:56.186Z,35.40
2017-05-21T19:02:24.640Z,35.00
2017-05-21T19:04:53.023Z,35.30
2017-05-21T19:07:21.403Z,35.40
2017-05-21T19:09:49.751Z,35.60
2017-05-21T19:12:18.087Z,35.80
2017-05-21T19:14:46.393Z,35.80
2017-05-21T19:17:14.736Z,35.80
2017-05-21T19:19:43.224Z,36.00
2017-05-21T19:22:11.653Z,35.90
2017-05-21T19:24:40.961Z,36.10
2017-05-21T19:27:09.293Z,36.20
2017-05-21T19:29:37.638Z,36.20
2017-05-21T19:32:05.959Z,36.20
2017-05-21T19:34:34.435Z,36.40
2017-05-21T19:37:02.736Z,36.60
2017-05-21T19:39:31.050Z,37.00
2017-05-21T19:41:59.366Z,37.00
2017-05-21T19:44:27.670Z,37.20
2017-05-21T19:46:56.108Z,37.20
2017-05-21T19:49:24.423Z,37.30
2017-05-21T19:51:52.810Z,37.30
2017-05-21T19:54:21.115Z,37.30
2017-05-21T19:56:49.562Z,37.40
2017-05-21T19:59:17.879Z,37.50
2017-05-21T20:01:46.211Z,37.70
2017-05-21T20:04:14.530Z,38.00
2017-05-21T20:06:42.848Z,38.10
2017-05-21T20:09:11.174Z,38.10
2017-05-21T20:11:39.509Z,38.20
2017-05-21T20:14:07.830Z,38.10
2017-05-21T20:16:36.151Z,38.40
2017-05-21T20:19:04.450Z,38.30
2017-05-21T20:21:32.789Z,38.40
2017-05-21T20:24:01.073Z,38.40
2017-05-21T20:26:29.358Z,38.30
2017-05-21T20:28:57.691Z,38.50
2017-05-21T20:31:25.985Z,38.30
2017-05-21T20:33:54.487Z,38.10
2017-05-21T20:36:22.860Z,38.20
2017-05-21T20:38:51.148Z,38.80
2017-05-21T20:41:19.443Z,38.10
2017-05-21T20:43:47.781Z,38.50
2017-05-21T20:46:16.209Z,38.50
2017-05-21T20:48:44.504Z,38.80
2017-05-21T20:51:12.800Z,38.60
2017-05-21T20:53:41.106Z,38.90
2017-05-21T20:56:09.413Z,38.70
2017-05-21T20:58:37.703Z,38.70
2017-05-21T21:01:06.088Z,38.90
2017-05-21T21:03:34.396Z,38.80
2017-05-21T21:06:02.688Z,38.60
2017-05-21T21:08:30.981Z,38.70
2017-05-21T21:10:59.274Z,38.80
2017-05-21T21:13:27.786Z,38.90
2017-05-21T21:15:56.078Z,38.60
2017-05-21T21:18:24.622Z,38.70
2017-05-21T21:20:52.980Z,38.70
2017-05-21T21:23:21.271Z,38.50
2017-05-21T21:25:49.555Z,38.70
2017-05-21T21:28:17.848Z,38.50
2017-05-21T21:30:46.128Z,38.40
2017-05-21T21:33:14.447Z,38.30
2017-05-21T21:35:42.766Z,39.10
2017-05-21T21:38:11.053Z,38.50
2017-05-21T21:40:39.335Z,38.60
2017-05-21T21:43:07.980Z,38.60
2017-05-21T21:45:36.284Z,39.50
2017-05-21T21:48:04.625Z,39.00
2017-05-21T21:50:32.999Z,39.10
2017-05-21T21:53:01.313Z,39.20
2017-05-21T21:55:29.630Z,39.20
2017-05-21T21:57:57.950Z,39.50
2017-05-21T22:00:26.250Z,39.80
2017-05-21T22:02:54.615Z,40.00
2017-05-21T22:05:22.921Z,40.30
2017-05-21T22:07:51.232Z,40.60
2017-05-21T22:10:19.826Z,40.70
2017-05-21T22:12:48.131Z,41.10
2017-05-21T22:15:16.458Z,41.20
2017-05-21T22:17:44.776Z,41.30
2017-05-21T22:20:13.094Z,41.30
2017-05-21T22:22:42.180Z,41.30
2017-05-21T22:25:10.489Z,41.50
2017-05-21T22:27:38.026Z,41.50
2017-05-21T22:30:06.326Z,41.90
2017-05-21T22:32:34.704Z,41.80
2017-05-21T22:35:02.991Z,42.00
2017-05-21T22:37:30.501Z,42.00
2017-05-21T22:39:58.811Z,42.60
2017-05-21T22:42:27.102Z,42.70
2017-05-21T22:44:55.402Z,43.00
2017-05-21T22:47:23.709Z,42.80
2017-05-21T22:49:51.996Z,43.20
2017-05-21T22:52:20.263Z,43.20
2017-05-21T22:54:48.542Z,43.20
2017-05-21T22:57:16.448Z,43.20
2017-05-21T22:59:44.723Z,43.60
2017-05-21T23:02:13.028Z,43.90
2017-05-21T23:04:41.304Z,43.80
2017-05-21T23:07:09.579Z,44.00
2017-05-21T23:09:37.900Z,44.00
2017-05-21T23:12:06.185Z,44.30
2017-05-21T23:14:34.477Z,44.30
2017-05-21T23:17:02.766Z,44.40
2017-05-21T23:19:31.112Z,44.30
2017-05-21T23:21:59.404Z,44.60
2017-05-21T23:24:27.730Z,44.80
2017-05-21T23:26:56.039Z,44.60
2017-05-21T23:29:24.336Z,45.00
2017-05-21T23:31:52.614Z,45.20
2017-05-21T23:34:20.890Z,45.30
2017-05-21T23:36:49.445Z,45.30
2017-05-21T23:39:17.749Z,45.50
2017-05-21T23:41:46.018Z,45.50
2017-05-21T23:44:14.310Z,45.50
2017-05-21T23:46:41.836Z,45.40
2017-05-21T23:49:10.128Z,45.40
2017-05-21T23:51:38.523Z,45.70
2017-05-21T23:54:06.795Z,45.50
2017-05-21T23:56:35.132Z,45.90
2017-05-21T23:59:03.473Z,46.10
